sim
Sign-in with your pilot id or email,
or register
Callsign
Passwort

Schedule Details

Flight Number: OEO3433
Departure: Milan Bergamo Il Caravaggio International Airport (LIME) at 16:05
Arrival: Munich Airport (EDDM) at 17:15

Weather Information
Getting current METAR information for LIME 231020Z 22004KT 180V300 9999 SCT020 SCT090 20/15 Q1011 NOSIG
Getting current METAR information for EDDM 231020Z 26010KT 9000 -SHRA FEW007 FEW015TCU BKN032 15/14 Q1010 NOSIG

Schedule Frequency

Route Map